Time;durP1;ratioP1;P1;durP2;ratioP2;P2;SDS_P1;SDS_P2;PMS_P1;PMS_P2;Temp;Humidity;BMP_temperature;BMP_pressure;BME280_temperature;BME280_humidity;BME280_pressure;Samples;Min_cycle;Max_cycle;Signal;HPM_P1;HPM_P2
2021/08/03 00:00:37;;;;;;;;;;;;;;;;;;4997875;28;1976;-90
2021/08/03 00:03:19;;;;;;;;;;;;;;;;;;4998728;28;1620;-90
2021/08/03 00:08:28;;;;;;;;;;;;;;;;;;4996675;28;669;-92
2021/08/03 00:13:37;;;;;;;;;;;;;;;;;;4996579;28;605;-93
2021/08/03 00:16:10;;;;;;;;;;;;;;;;;;4979192;28;1153;-92
2021/08/03 00:21:36;;;;;;;;;;;;;;;;;;4996613;28;1965;-92
2021/08/03 00:29:31;;;;;;;;;;;;;;;;;;5016093;28;622;-91
2021/08/03 00:34:53;;;;;;;;;;;;;;;;;;5016028;28;621;-90
2021/08/03 00:42:58;;;;;;;;;;;;;;;;;;4975129;28;649;-91
2021/08/03 00:48:06;;;;;;;;;;;;;;;;;;4975112;28;567;-91
2021/08/03 00:53:15;;;;;;;;;;;;;;;;;;4975072;28;641;-92
2021/08/03 01:01:07;;;;;;;;;;;;;;;;;;4974380;28;2027;-93
2021/08/03 01:09:00;;;;;;;;;;;;;;;;;;4974904;28;1188;-94
2021/08/03 01:14:29;;;;;;;;;;;;;;;;;;4978675;28;586;-92
2021/08/03 01:17:12;;;;;;;;;;;;;;;;;;4990946;28;1604;-90
2021/08/03 01:19:58;;;;;;;;;;;;;;;;;;4998633;28;2021;-92
2021/08/03 01:22:42;;;;;;;;;;;;;;;;;;4999671;28;909;-89
2021/08/03 01:25:20;;;;;;;;;;;;;;;;;;4998307;28;1272;-92
2021/08/03 01:27:51;;;;;;;;;;;;;;;;;;4998646;28;1201;-93
2021/08/03 01:33:01;;;;;;;;;;;;;;;;;;5000164;28;622;-93
2021/08/03 01:38:10;;;;;;;;;;;;;;;;;;4999544;28;606;-91
2021/08/03 01:43:19;;;;;;;;;;;;;;;;;;4999394;28;685;-91
2021/08/03 01:46:04;;;;;;;;;;;;;;;;;;4998008;28;1371;-91
2021/08/03 01:48:35;;;;;;;;;;;;;;;;;;4998051;28;1251;-90
2021/08/03 01:51:06;;;;;;;;;;;;;;;;;;4998050;28;1278;-91
2021/08/03 02:01:42;;;;;;;;;;;;;;;;;;5016653;28;1295;-89
2021/08/03 02:07:04;;;;;;;;;;;;;;;;;;5018443;28;609;-90
2021/08/03 02:09:30;;;;;;;;;;;;;;;;;;5018569;28;1675;-89
2021/08/03 02:11:55;;;;;;;;;;;;;;;;;;5000577;28;1608;-89
2021/08/03 02:14:27;;;;;;;;;;;;;;;;;;5000692;28;1157;-89
2021/08/03 02:17:13;;;;;;;;;;;;;;;;;;5000604;28;1596;-89
2021/08/03 02:19:48;;;;;;;;;;;;;;;;;;5000591;28;1910;-89
2021/08/03 02:22:15;;;;;;;;;;;;;;;;;;5017535;28;882;-90
2021/08/03 02:24:41;;;;;;;;;;;;;;;;;;5000195;28;1607;-89
2021/08/03 02:32:33;;;;;;;;;;;;;;;;;;5017940;28;610;-88
2021/08/03 02:37:42;;;;;;;;;;;;;;;;;;5017933;28;676;-88
2021/08/03 02:40:18;;;;;;;;;;;;;;;;;;5000132;28;1886;-89
2021/08/03 02:42:50;;;;;;;;;;;;;;;;;;5000308;28;1236;-89
2021/08/03 02:51:14;;;;;;;;;;;;;;;;;;4976673;28;654;-86
2021/08/03 02:53:40;;;;;;;;;;;;;;;;;;4960428;28;1253;-86
2021/08/03 02:59:03;;;;;;;;;;;;;;;;;;4976442;28;935;-87
2021/08/03 03:01:28;;;;;;;;;;;;;;;;;;4975436;28;1948;-87
2021/08/03 03:03:53;;;;;;;;;;;;;;;;;;4976403;28;1308;-87
2021/08/03 03:09:19;;;;;;;;;;;;;;;;;;4976369;28;610;-86
2021/08/03 03:11:45;;;;;;;;;;;;;;;;;;4946505;28;1676;-88
2021/08/03 03:16:55;;;;;;;;;;;;;;;;;;4956941;29;599;-87
2021/08/03 03:19:22;;;;;;;;;;;;;;;;;;4956725;29;1981;-87
2021/08/03 03:21:59;;;;;;;;;;;;;;;;;;4974300;28;1625;-87
2021/08/03 03:24:25;;;;;;;;;;;;;;;;;;4981509;28;1249;-86
2021/08/03 03:27:09;;;;;;;;;;;;;;;;;;4997298;28;890;-88
2021/08/03 03:32:18;;;;;;;;;;;;;;;;;;4997297;28;685;-88
2021/08/03 03:34:58;;;;;;;;;;;;;;;;;;4979717;28;1144;-87
2021/08/03 03:37:36;;;;;;;;;;;;;;;;;;4997336;28;906;-88
2021/08/03 03:40:08;;;;;;;;;;;;;;;;;;4986573;28;1883;-88
2021/08/03 03:42:38;;;;;;;;;;;;;;;;;;4979727;28;1295;-88
2021/08/03 03:45:03;;;;;;;;;;;;;;;;;;4979731;28;1170;-88
2021/08/03 03:50:14;;;;;;;;;;;;;;;;;;4996971;28;677;-88
2021/08/03 04:01:10;;;;;;;;;;;;;;;;;;4954265;28;1907;-87
2021/08/03 04:03:36;;;;;;;;;;;;;;;;;;4953249;29;1648;-88
2021/08/03 04:06:02;;;;;;;;;;;;;;;;;;4937062;29;851;-89
2021/08/03 04:11:24;;;;;;;;;;;;;;;;;;4949376;29;1620;-90
2021/08/03 04:14:07;;;;;;;;;;;;;;;;;;4956037;29;1304;-89
2021/08/03 04:19:47;;;;;;;;;;;;;;;;;;4955843;29;1903;-88
2021/08/03 04:22:14;;;;;;;;;;;;;;;;;;4951979;29;1688;-87
2021/08/03 04:24:41;;;;;;;;;;;;;;;;;;4955796;29;1386;-88
2021/08/03 04:30:01;;;;;;;;;;;;;;;;;;4951470;29;1069;-87
2021/08/03 04:32:27;;;;;;;;;;;;;;;;;;4973540;28;1399;-87
2021/08/03 04:35:08;;;;;;;;;;;;;;;;;;4978263;28;1168;-87
2021/08/03 04:37:34;;;;;;;;;;;;;;;;;;4962993;28;1570;-86
2021/08/03 04:40:00;;;;;;;;;;;;;;;;;;4955600;28;1890;-87
2021/08/03 04:42:25;;;;;;;;;;;;;;;;;;4955626;28;1203;-87
2021/08/03 04:45:00;;;;;;;;;;;;;;;;;;4955808;28;1266;-89
2021/08/03 04:58:31;;;;;;;;;;;;;;;;;;4999879;28;987;-90
2021/08/03 05:03:40;;;;;;;;;;;;;;;;;;5005521;28;1395;-93
2021/08/03 05:11:49;;;;;;;;;;;;;;;;;;5019912;28;645;-87
2021/08/03 05:14:28;;;;;;;;;;;;;;;;;;5001874;28;1307;-86
2021/08/03 05:16:55;;;;;;;;;;;;;;;;;;5001810;28;1383;-85
2021/08/03 05:19:27;;;;;;;;;;;;;;;;;;5001459;28;1914;-84
2021/08/03 05:22:03;;;;;;;;;;;;;;;;;;5019238;28;870;-84
2021/08/03 05:24:29;;;;;;;;;;;;;;;;;;5019295;28;917;-86
2021/08/03 05:27:12;;;;;;;;;;;;;;;;;;5001628;28;1607;-87
2021/08/03 05:29:48;;;;;;;;;;;;;;;;;;5001269;28;1410;-86
2021/08/03 05:32:13;;;;;;;;;;;;;;;;;;5001352;28;1181;-86
2021/08/03 05:34:51;;;;;;;;;;;;;;;;;;5001563;28;1278;-86
2021/08/03 05:37:22;;;;;;;;;;;;;;;;;;5001204;28;1545;-86
2021/08/03 05:39:55;;;;;;;;;;;;;;;;;;5000786;28;1950;-84
2021/08/03 05:42:21;;;;;;;;;;;;;;;;;;4991887;28;1477;-84
2021/08/03 05:44:56;;;;;;;;;;;;;;;;;;5000966;28;1373;-85
2021/08/03 05:47:21;;;;;;;;;;;;;;;;;;5018588;28;1540;-85
2021/08/03 05:49:52;;;;;;;;;;;;;;;;;;5018651;28;997;-84
2021/08/03 05:52:21;;;;;;;;;;;;;;;;;;5001143;28;1215;-84
2021/08/03 05:54:46;;;;;;;;;;;;;;;;;;5001131;28;1267;-84
2021/08/03 05:59:40;;;;;;;;;;;;;;;;;;5018686;28;1941;-84
2021/08/03 06:02:05;;;;;;;;;;;;;;;;;;5013978;28;1185;-85
2021/08/03 06:04:30;;;;;;;;;;;;;;;;;;5000907;28;1348;-85
2021/08/03 06:06:57;;;;;;;;;;;;;;;;;;5000112;28;1205;-85
2021/08/03 06:11:52;;;;;;;;;;;;;;;;;;5018703;28;783;-86
2021/08/03 06:14:23;;;;;;;;;;;;;;;;;;5000708;28;1276;-85
2021/08/03 06:16:48;;;;;;;;;;;;;;;;;;5018546;28;887;-86
2021/08/03 06:19:19;;;;;;;;;;;;;;;;;;5000647;28;1898;-84
2021/08/03 06:22:01;;;;;;;;;;;;;;;;;;5000727;28;1181;-86
2021/08/03 06:24:33;;;;;;;;;;;;;;;;;;5000814;28;1373;-85
2021/08/03 06:27:15;;;;;;;;;;;;;;;;;;5018172;28;923;-85
2021/08/03 06:30:00;;;;;;;;;;;;;;;;;;5000532;28;1292;-86
2021/08/03 06:32:32;;;;;;;;;;;;;;;;;;5000508;28;1173;-87
2021/08/03 06:35:12;;;;;;;;;;;;;;;;;;5000400;28;1348;-88
2021/08/03 06:37:52;;;;;;;;;;;;;;;;;;5000338;28;1206;-87
2021/08/03 06:43:15;;;;;;;;;;;;;;;;;;5017778;28;618;-88
2021/08/03 06:45:50;;;;;;;;;;;;;;;;;;5000279;28;1295;-86
2021/08/03 06:48:17;;;;;;;;;;;;;;;;;;5017795;28;882;-87
2021/08/03 06:53:28;;;;;;;;;;;;;;;;;;5017445;28;836;-87
2021/08/03 06:55:59;;;;;;;;;;;;;;;;;;4999346;28;1277;-88
2021/08/03 06:58:39;;;;;;;;;;;;;;;;;;5000079;28;1246;-89
2021/08/03 07:01:12;;;;;;;;;;;;;;;;;;5000587;28;1938;-89
2021/08/03 07:03:38;;;;;;;;;;;;;;;;;;5000848;28;1576;-89
2021/08/03 07:06:05;;;;;;;;;;;;;;;;;;5001067;28;1233;-89
2021/08/03 07:08:38;;;;;;;;;;;;;;;;;;5000296;28;1279;-88
2021/08/03 07:11:07;;;;;;;;;;;;;;;;;;4998698;28;1224;-87
2021/08/03 07:13:41;;;;;;;;;;;;;;;;;;5000069;28;1241;-88
2021/08/03 07:16:16;;;;;;;;;;;;;;;;;;5000094;28;1312;-87
2021/08/03 07:18:42;;;;;;;;;;;;;;;;;;5017390;28;835;-86
2021/08/03 07:21:07;;;;;;;;;;;;;;;;;;5000351;28;1966;-87
2021/08/03 07:23:44;;;;;;;;;;;;;;;;;;5000123;28;1260;-87
2021/08/03 07:26:11;;;;;;;;;;;;;;;;;;5000224;28;1363;-86
2021/08/03 07:31:30;;;;;;;;;;;;;;;;;;4937574;29;1031;-88
2021/08/03 07:33:57;;;;;;;;;;;;;;;;;;4921404;29;1173;-88
2021/08/03 07:36:34;;;;;;;;;;;;;;;;;;4921521;29;1286;-88
2021/08/03 07:39:00;;;;;;;;;;;;;;;;;;4922207;29;1345;-87
2021/08/03 07:41:34;;;;;;;;;;;;;;;;;;4921956;29;2358;-86
2021/08/03 07:44:00;;;;;;;;;;;;;;;;;;4921852;29;1417;-86
2021/08/03 07:46:34;;;;;;;;;;;;;;;;;;4937411;29;935;-86
2021/08/03 07:49:00;;;;;;;;;;;;;;;;;;4921916;29;1417;-91
2021/08/03 07:51:46;;;;;;;;;;;;;;;;;;4922247;29;1126;-90
2021/08/03 07:54:14;;;;;;;;;;;;;;;;;;4922197;29;1227;-88
2021/08/03 07:56:40;;;;;;;;;;;;;;;;;;4937618;29;915;-87
2021/08/03 07:59:05;;;;;;;;;;;;;;;;;;4922146;29;1362;-89
2021/08/03 08:04:13;;;;;;;;;;;;;;;;;;4935098;29;1056;-86
2021/08/03 08:09:43;;;;;;;;;;;;;;;;;;4975299;28;641;-86
2021/08/03 08:12:21;;;;;;;;;;;;;;;;;;4975536;28;1170;-86
2021/08/03 08:14:47;;;;;;;;;;;;;;;;;;4974642;28;1308;-85
2021/08/03 08:17:14;;;;;;;;;;;;;;;;;;4974551;28;1187;-85
2021/08/03 08:19:51;;;;;;;;;;;;;;;;;;4975241;28;1910;-86
2021/08/03 08:22:19;;;;;;;;;;;;;;;;;;4974332;28;1331;-85
2021/08/03 08:24:53;;;;;;;;;;;;;;;;;;4974993;28;1257;-85
2021/08/03 08:27:29;;;;;;;;;;;;;;;;;;4975165;28;1411;-85
2021/08/03 08:29:56;;;;;;;;;;;;;;;;;;4974945;28;1274;-87
2021/08/03 08:32:24;;;;;;;;;;;;;;;;;;4974893;28;1130;-86
2021/08/03 08:34:58;;;;;;;;;;;;;;;;;;4974716;28;1339;-86
2021/08/03 08:37:24;;;;;;;;;;;;;;;;;;4974960;28;887;-85
2021/08/03 08:39:55;;;;;;;;;;;;;;;;;;4970454;28;1883;-87
2021/08/03 08:45:24;;;;;;;;;;;;;;;;;;4955648;29;752;-86
2021/08/03 08:48:03;;;;;;;;;;;;;;;;;;4955590;29;1398;-87
2021/08/03 08:50:29;;;;;;;;;;;;;;;;;;4955271;28;1320;-87
2021/08/03 08:53:14;;;;;;;;;;;;;;;;;;4955562;28;1310;-88
2021/08/03 08:55:50;;;;;;;;;;;;;;;;;;4955387;28;1280;-87
2021/08/03 09:01:15;;;;;;;;;;;;;;;;;;4954713;28;1883;-87
2021/08/03 09:03:40;;;;;;;;;;;;;;;;;;4952879;28;1333;-87
2021/08/03 09:06:06;;;;;;;;;;;;;;;;;;4955304;29;1288;-88
2021/08/03 09:08:34;;;;;;;;;;;;;;;;;;4952348;28;1304;-88
2021/08/03 09:11:00;;;;;;;;;;;;;;;;;;4954163;28;1395;-87
2021/08/03 09:16:09;;;;;;;;;;;;;;;;;;4955582;28;894;-87
2021/08/03 09:18:54;;;;;;;;;;;;;;;;;;4955214;28;1308;-87
2021/08/03 09:21:33;;;;;;;;;;;;;;;;;;4955907;28;1899;-88
2021/08/03 09:24:11;;;;;;;;;;;;;;;;;;4956207;28;1181;-89
2021/08/03 09:26:43;;;;;;;;;;;;;;;;;;4955993;28;1356;-89
2021/08/03 09:31:52;;;;;;;;;;;;;;;;;;4959639;28;945;-89
2021/08/03 09:34:35;;;;;;;;;;;;;;;;;;4978921;28;1254;-88
2021/08/03 09:37:03;;;;;;;;;;;;;;;;;;4977710;28;1332;-88
2021/08/03 09:39:29;;;;;;;;;;;;;;;;;;4979528;28;1882;-88
2021/08/03 09:41:55;;;;;;;;;;;;;;;;;;4978718;28;1288;-89
2021/08/03 09:44:20;;;;;;;;;;;;;;;;;;4978822;28;1161;-88
2021/08/03 09:49:36;;;;;;;;;;;;;;;;;;4979985;28;626;-88
2021/08/03 09:54:45;;;;;;;;;;;;;;;;;;4979608;28;630;-87
2021/08/03 10:00:07;;;;;;;;;;;;;;;;;;4958172;29;1911;-87
2021/08/03 10:05:15;;;;;;;;;;;;;;;;;;4921931;29;1221;-86
2021/08/03 10:07:42;;;;;;;;;;;;;;;;;;4903592;29;1160;-86
2021/08/03 10:13:05;;;;;;;;;;;;;;;;;;4920121;29;678;-86
2021/08/03 10:15:30;;;;;;;;;;;;;;;;;;4919787;29;872;-86
2021/08/03 10:17:56;;;;;;;;;;;;;;;;;;4919832;29;1358;-86
2021/08/03 10:20:41;;;;;;;;;;;;;;;;;;4919577;29;1994;-86
2021/08/03 10:23:08;;;;;;;;;;;;;;;;;;4919946;29;936;-87
2021/08/03 10:25:35;;;;;;;;;;;;;;;;;;4919541;29;1275;-87
2021/08/03 10:28:09;;;;;;;;;;;;;;;;;;4919717;29;1261;-88
2021/08/03 10:33:33;;;;;;;;;;;;;;;;;;4919546;29;603;-87
2021/08/03 10:36:00;;;;;;;;;;;;;;;;;;4937466;28;1336;-88
2021/08/03 10:38:41;;;;;;;;;;;;;;;;;;4978874;28;934;-87
2021/08/03 10:41:17;;;;;;;;;;;;;;;;;;4977093;28;1891;-89
2021/08/03 10:49:27;;;;;;;;;;;;;;;;;;4919605;29;888;-90
2021/08/03 10:52:12;;;;;;;;;;;;;;;;;;4903398;29;1220;-90
2021/08/03 10:54:48;;;;;;;;;;;;;;;;;;4903302;29;1291;-90
2021/08/03 10:57:13;;;;;;;;;;;;;;;;;;4919393;29;843;-89
2021/08/03 10:59:54;;;;;;;;;;;;;;;;;;4903409;29;1946;-89
2021/08/03 11:05:02;;;;;;;;;;;;;;;;;;4918848;29;1240;-88
2021/08/03 11:10:11;;;;;;;;;;;;;;;;;;4919230;29;607;-88
2021/08/03 11:12:48;;;;;;;;;;;;;;;;;;4903027;29;1327;-88
2021/08/03 11:15:15;;;;;;;;;;;;;;;;;;4918993;29;1053;-89
2021/08/03 11:17:50;;;;;;;;;;;;;;;;;;4903040;29;1151;-89
2021/08/03 11:20:16;;;;;;;;;;;;;;;;;;4924391;28;1907;-88
2021/08/03 11:25:35;;;;;;;;;;;;;;;;;;4978138;28;672;-89
2021/08/03 11:30:44;;;;;;;;;;;;;;;;;;4997425;28;605;-88
2021/08/03 11:33:18;;;;;;;;;;;;;;;;;;4997425;28;844;-88
2021/08/03 11:35:43;;;;;;;;;;;;;;;;;;4996163;28;1307;-88
2021/08/03 11:40:54;;;;;;;;;;;;;;;;;;4997191;28;1883;-88
2021/08/03 11:43:34;;;;;;;;;;;;;;;;;;4995893;28;1158;-88
2021/08/03 11:45:59;;;;;;;;;;;;;;;;;;4996001;28;1166;-87
2021/08/03 11:48:37;;;;;;;;;;;;;;;;;;4997018;28;918;-87
2021/08/03 11:53:53;;;;;;;;;;;;;;;;;;4996937;28;606;-88
2021/08/03 11:56:20;;;;;;;;;;;;;;;;;;4995633;28;1165;-87
2021/08/03 11:58:45;;;;;;;;;;;;;;;;;;4995800;28;1293;-87
2021/08/03 12:03:54;;;;;;;;;;;;;;;;;;5001979;28;1074;-87
2021/08/03 12:06:19;;;;;;;;;;;;;;;;;;4998922;28;1270;-87
2021/08/03 12:11:40;;;;;;;;;;;;;;;;;;5016541;28;614;-87
2021/08/03 12:14:20;;;;;;;;;;;;;;;;;;4998702;28;1209;-88
2021/08/03 12:16:45;;;;;;;;;;;;;;;;;;4998666;28;1345;-89
2021/08/03 12:27:34;;;;;;;;;;;;;;;;;;5016250;28;665;-89
2021/08/03 12:33:00;;;;;;;;;;;;;;;;;;5016146;28;677;-89
2021/08/03 12:38:10;;;;;;;;;;;;;;;;;;5015770;28;1279;-88
2021/08/03 12:40:36;;;;;;;;;;;;;;;;;;5015804;28;1946;-89
2021/08/03 12:43:08;;;;;;;;;;;;;;;;;;4998530;28;1228;-89
2021/08/03 12:48:17;;;;;;;;;;;;;;;;;;5015490;28;871;-87
2021/08/03 12:50:50;;;;;;;;;;;;;;;;;;4998321;28;1293;-89
2021/08/03 12:53:30;;;;;;;;;;;;;;;;;;4998336;28;1381;-89
2021/08/03 12:56:16;;;;;;;;;;;;;;;;;;4998186;28;1285;-88
2021/08/03 12:58:52;;;;;;;;;;;;;;;;;;5015894;28;879;-87
2021/08/03 13:01:26;;;;;;;;;;;;;;;;;;4997630;28;1949;-87
2021/08/03 13:03:51;;;;;;;;;;;;;;;;;;4998731;28;1282;-87
2021/08/03 13:06:16;;;;;;;;;;;;;;;;;;4998275;28;1214;-87
2021/08/03 13:14:03;;;;;;;;;;;;;;;;;;5019651;28;628;-88
2021/08/03 13:19:12;;;;;;;;;;;;;;;;;;5019612;28;574;-89
2021/08/03 13:24:46;;;;;;;;;;;;;;;;;;4958952;29;975;-87
2021/08/03 13:27:12;;;;;;;;;;;;;;;;;;4942896;29;1255;-89
2021/08/03 13:29:37;;;;;;;;;;;;;;;;;;4942979;29;1267;-88
2021/08/03 13:32:02;;;;;;;;;;;;;;;;;;4942806;29;1146;-87
2021/08/03 13:40:26;;;;;;;;;;;;;;;;;;4846383;29;1945;-88
2021/08/03 13:43:06;;;;;;;;;;;;;;;;;;4864305;29;1162;-88
2021/08/03 13:45:33;;;;;;;;;;;;;;;;;;4863121;29;1307;-88
2021/08/03 13:48:07;;;;;;;;;;;;;;;;;;4862640;29;1300;-88
2021/08/03 13:50:33;;;;;;;;;;;;;;;;;;4864133;29;1340;-88
2021/08/03 13:53:01;;;;;;;;;;;;;;;;;;4864035;29;1270;-88
2021/08/03 13:55:28;;;;;;;;;;;;;;;;;;4863973;29;1345;-88
2021/08/03 14:03:31;;;;;;;;;;;;;;;;;;4882593;29;995;-88
2021/08/03 14:05:56;;;;;;;;;;;;;;;;;;4866939;29;1184;-88
2021/08/03 14:11:21;;;;;;;;;;;;;;;;;;4939059;29;925;-87
2021/08/03 14:16:29;;;;;;;;;;;;;;;;;;4953923;28;934;-89
2021/08/03 14:19:02;;;;;;;;;;;;;;;;;;4976936;28;1245;-89
2021/08/03 14:38:02;;;;;;;;;;;;;;;;;;4977065;28;686;-87
2021/08/03 14:40:28;;;;;;;;;;;;;;;;;;4960606;28;1879;-87
2021/08/03 14:43:03;;;;;;;;;;;;;;;;;;4960690;28;1228;-87
2021/08/03 14:50:55;;;;;;;;;;;;;;;;;;4976884;28;603;-88
2021/08/03 14:53:36;;;;;;;;;;;;;;;;;;4960375;28;1263;-89
2021/08/03 14:56:17;;;;;;;;;;;;;;;;;;4960710;28;1155;-89
2021/08/03 15:04:10;;;;;;;;;;;;;;;;;;4976630;28;1157;-88
2021/08/03 15:06:35;;;;;;;;;;;;;;;;;;4977969;28;1053;-89
2021/08/03 15:09:07;;;;;;;;;;;;;;;;;;4990354;28;1310;-89
2021/08/03 15:11:39;;;;;;;;;;;;;;;;;;4996113;28;1416;-89
2021/08/03 15:14:11;;;;;;;;;;;;;;;;;;4996410;28;1386;-88
2021/08/03 15:22:13;;;;;;;;;;;;;;;;;;4997204;28;877;-88
2021/08/03 15:24:50;;;;;;;;;;;;;;;;;;4996239;28;1196;-87
2021/08/03 15:27:32;;;;;;;;;;;;;;;;;;4996290;28;1205;-87
2021/08/03 15:32:40;;;;;;;;;;;;;;;;;;4997386;28;670;-89
2021/08/03 15:35:12;;;;;;;;;;;;;;;;;;4996136;28;1178;-88
2021/08/03 15:37:53;;;;;;;;;;;;;;;;;;4996044;28;1384;-89
2021/08/03 15:40:26;;;;;;;;;;;;;;;;;;4995925;28;1886;-89
2021/08/03 15:43:04;;;;;;;;;;;;;;;;;;4995970;28;1340;-89
2021/08/03 15:45:37;;;;;;;;;;;;;;;;;;4995926;28;1264;-89
2021/08/03 15:50:46;;;;;;;;;;;;;;;;;;4996988;28;603;-88
2021/08/03 15:56:02;;;;;;;;;;;;;;;;;;4997259;28;579;-88
2021/08/03 15:58:27;;;;;;;;;;;;;;;;;;4995644;28;1176;-88
2021/08/03 16:04:02;;;;;;;;;;;;;;;;;;4952367;29;1074;-86
2021/08/03 16:06:27;;;;;;;;;;;;;;;;;;4939958;29;1237;-87
2021/08/03 16:08:53;;;;;;;;;;;;;;;;;;4940061;29;1269;-87
2021/08/03 16:11:20;;;;;;;;;;;;;;;;;;4939876;29;1291;-87
2021/08/03 16:13:56;;;;;;;;;;;;;;;;;;4939924;29;1186;-87
2021/08/03 16:19:21;;;;;;;;;;;;;;;;;;4955948;29;946;-87
2021/08/03 16:22:03;;;;;;;;;;;;;;;;;;4939537;29;1910;-88
2021/08/03 16:24:43;;;;;;;;;;;;;;;;;;4939808;29;1206;-89
2021/08/03 16:27:18;;;;;;;;;;;;;;;;;;4948562;29;1258;-89
2021/08/03 16:29:57;;;;;;;;;;;;;;;;;;4954652;28;1197;-89
2021/08/03 16:32:23;;;;;;;;;;;;;;;;;;4955853;28;1162;-89
2021/08/03 16:37:43;;;;;;;;;;;;;;;;;;4925807;29;1125;-88
2021/08/03 16:40:09;;;;;;;;;;;;;;;;;;4936684;29;1942;-88
2021/08/03 16:42:36;;;;;;;;;;;;;;;;;;4938306;28;1301;-88
2021/08/03 16:45:17;;;;;;;;;;;;;;;;;;4940742;29;1025;-89
2021/08/03 16:48:04;;;;;;;;;;;;;;;;;;4940501;28;1411;-88
2021/08/03 16:50:31;;;;;;;;;;;;;;;;;;4940657;28;1224;-88
2021/08/03 16:53:11;;;;;;;;;;;;;;;;;;4940683;29;828;-88
2021/08/03 17:03:58;;;;;;;;;;;;;;;;;;4940311;29;765;-90
2021/08/03 17:06:23;;;;;;;;;;;;;;;;;;4939788;29;1270;-89
2021/08/03 17:09:06;;;;;;;;;;;;;;;;;;4939951;29;1244;-89
2021/08/03 17:11:31;;;;;;;;;;;;;;;;;;4940065;29;855;-89
2021/08/03 17:14:15;;;;;;;;;;;;;;;;;;4943131;29;1222;-89
2021/08/03 17:16:49;;;;;;;;;;;;;;;;;;4958976;29;1300;-89
2021/08/03 17:25:00;;;;;;;;;;;;;;;;;;4940025;29;945;-87
2021/08/03 17:27:28;;;;;;;;;;;;;;;;;;4938685;29;1027;-87
2021/08/03 17:29:54;;;;;;;;;;;;;;;;;;4939284;29;1238;-87
2021/08/03 17:32:27;;;;;;;;;;;;;;;;;;4939993;29;867;-87
2021/08/03 17:34:54;;;;;;;;;;;;;;;;;;4939593;29;1301;-87
2021/08/03 17:40:28;;;;;;;;;;;;;;;;;;4939396;29;1887;-88
2021/08/03 17:43:09;;;;;;;;;;;;;;;;;;4939520;29;1311;-89
2021/08/03 17:45:35;;;;;;;;;;;;;;;;;;4939489;29;1322;-88
2021/08/03 17:48:01;;;;;;;;;;;;;;;;;;4939618;29;1285;-89
2021/08/03 17:58:49;;;;;;;;;;;;;;;;;;4939403;29;689;-88
2021/08/03 18:01:16;;;;;;;;;;;;;;;;;;4923226;29;1887;-89
2021/08/03 18:03:41;;;;;;;;;;;;;;;;;;4939375;29;1132;-89
2021/08/03 18:06:06;;;;;;;;;;;;;;;;;;4939078;29;1309;-89
2021/08/03 18:14:00;;;;;;;;;;;;;;;;;;4939205;29;615;-89
2021/08/03 18:16:44;;;;;;;;;;;;;;;;;;4951939;28;1266;-89
2021/08/03 18:22:07;;;;;;;;;;;;;;;;;;4998610;28;1977;-89
2021/08/03 18:27:16;;;;;;;;;;;;;;;;;;4998644;28;591;-88
2021/08/03 18:29:59;;;;;;;;;;;;;;;;;;4998576;28;981;-89
2021/08/03 18:32:37;;;;;;;;;;;;;;;;;;4997373;28;1267;-88
2021/08/03 18:35:02;;;;;;;;;;;;;;;;;;4997479;28;1397;-88
2021/08/03 18:40:12;;;;;;;;;;;;;;;;;;4998329;28;1887;-88
2021/08/03 18:42:38;;;;;;;;;;;;;;;;;;4998082;28;854;-89
2021/08/03 18:47:47;;;;;;;;;;;;;;;;;;4998285;28;599;-88
2021/08/03 18:52:56;;;;;;;;;;;;;;;;;;4998257;28;626;-89
2021/08/03 18:55:36;;;;;;;;;;;;;;;;;;4996792;28;1179;-89
2021/08/03 19:01:02;;;;;;;;;;;;;;;;;;4997932;28;1879;-88
2021/08/03 19:03:46;;;;;;;;;;;;;;;;;;4996839;28;1256;-88
2021/08/03 19:06:13;;;;;;;;;;;;;;;;;;4995923;28;1395;-87
2021/08/03 19:08:38;;;;;;;;;;;;;;;;;;4996693;28;1323;-87
2021/08/03 19:11:04;;;;;;;;;;;;;;;;;;4997912;28;926;-88
2021/08/03 19:13:43;;;;;;;;;;;;;;;;;;4996523;28;1367;-88
2021/08/03 19:16:22;;;;;;;;;;;;;;;;;;4996552;28;1420;-88
2021/08/03 19:19:04;;;;;;;;;;;;;;;;;;4996433;28;1324;-87
2021/08/03 19:21:37;;;;;;;;;;;;;;;;;;4996230;28;1883;-86
2021/08/03 19:24:11;;;;;;;;;;;;;;;;;;4996329;28;1172;-87
2021/08/03 19:29:53;;;;;;;;;;;;;;;;;;4937726;29;729;-89
2021/08/03 19:32:27;;;;;;;;;;;;;;;;;;4937466;29;1120;-88
2021/08/03 19:35:05;;;;;;;;;;;;;;;;;;4921620;29;1312;-88
2021/08/03 19:40:13;;;;;;;;;;;;;;;;;;4918435;29;1887;-88
2021/08/03 19:42:49;;;;;;;;;;;;;;;;;;4916654;29;1225;-88
2021/08/03 19:45:31;;;;;;;;;;;;;;;;;;4918395;29;1285;-88
2021/08/03 19:47:58;;;;;;;;;;;;;;;;;;4918260;29;1306;-87
2021/08/03 19:53:16;;;;;;;;;;;;;;;;;;4917988;29;993;-88
2021/08/03 19:55:42;;;;;;;;;;;;;;;;;;4918291;29;934;-88
2021/08/03 19:58:21;;;;;;;;;;;;;;;;;;4918172;29;1194;-88
2021/08/03 20:03:48;;;;;;;;;;;;;;;;;;4891828;29;1051;-88
2021/08/03 20:06:13;;;;;;;;;;;;;;;;;;4919562;29;1252;-88
2021/08/03 20:08:49;;;;;;;;;;;;;;;;;;4920947;29;1257;-87
2021/08/03 20:11:15;;;;;;;;;;;;;;;;;;4921067;29;1182;-87
2021/08/03 20:13:43;;;;;;;;;;;;;;;;;;4921125;29;1162;-88
2021/08/03 20:18:54;;;;;;;;;;;;;;;;;;4937002;29;671;-88
2021/08/03 20:32:14;;;;;;;;;;;;;;;;;;4937023;29;580;-89
2021/08/03 20:37:43;;;;;;;;;;;;;;;;;;4936560;29;1017;-89
2021/08/03 20:40:30;;;;;;;;;;;;;;;;;;4957687;28;1993;-88
2021/08/03 20:43:06;;;;;;;;;;;;;;;;;;4976005;28;1283;-88
2021/08/03 20:45:31;;;;;;;;;;;;;;;;;;4976990;28;823;-88
2021/08/03 20:48:03;;;;;;;;;;;;;;;;;;4975879;28;1163;-88
2021/08/03 20:50:40;;;;;;;;;;;;;;;;;;4975998;28;1282;-88
2021/08/03 20:53:13;;;;;;;;;;;;;;;;;;4975831;28;1335;-87
2021/08/03 20:55:59;;;;;;;;;;;;;;;;;;4976105;28;1208;-87
2021/08/03 21:01:08;;;;;;;;;;;;;;;;;;4976880;28;1891;-88
2021/08/03 21:03:35;;;;;;;;;;;;;;;;;;4976779;28;1005;-87
2021/08/03 21:06:00;;;;;;;;;;;;;;;;;;4975600;28;1298;-87
2021/08/03 21:08:33;;;;;;;;;;;;;;;;;;4975600;28;1406;-87
2021/08/03 21:11:15;;;;;;;;;;;;;;;;;;4975778;28;1262;-88
2021/08/03 21:13:40;;;;;;;;;;;;;;;;;;4976831;28;921;-87
2021/08/03 21:16:07;;;;;;;;;;;;;;;;;;4975632;28;1391;-87
2021/08/03 21:18:42;;;;;;;;;;;;;;;;;;4991700;28;934;-87
2021/08/03 21:21:07;;;;;;;;;;;;;;;;;;4994894;28;1914;-87
2021/08/03 21:26:16;;;;;;;;;;;;;;;;;;4996120;28;646;-87
2021/08/03 21:29:02;;;;;;;;;;;;;;;;;;5011931;28;1144;-88
2021/08/03 21:36:55;;;;;;;;;;;;;;;;;;5019475;28;590;-88
2021/08/03 21:42:04;;;;;;;;;;;;;;;;;;5019063;28;1887;-89
2021/08/03 21:44:29;;;;;;;;;;;;;;;;;;5017946;28;1171;-88
2021/08/03 21:46:54;;;;;;;;;;;;;;;;;;5017968;28;1136;-88
2021/08/03 21:52:10;;;;;;;;;;;;;;;;;;5019009;28;677;-88
2021/08/03 21:54:51;;;;;;;;;;;;;;;;;;5017563;28;1365;-88
2021/08/03 21:57:29;;;;;;;;;;;;;;;;;;5017623;28;1253;-88
2021/08/03 21:59:56;;;;;;;;;;;;;;;;;;5017508;28;1894;-89
2021/08/03 22:02:41;;;;;;;;;;;;;;;;;;5017377;28;1415;-88
2021/08/03 22:05:06;;;;;;;;;;;;;;;;;;5017092;28;1267;-89
2021/08/03 22:13:25;;;;;;;;;;;;;;;;;;5016636;28;1059;-90
2021/08/03 22:24:26;;;;;;;;;;;;;;;;;;4977224;28;974;-89
2021/08/03 22:29:36;;;;;;;;;;;;;;;;;;4977109;28;969;-88
2021/08/03 22:32:12;;;;;;;;;;;;;;;;;;4977298;28;946;-89
2021/08/03 22:37:20;;;;;;;;;;;;;;;;;;4977335;28;1092;-89
2021/08/03 22:39:47;;;;;;;;;;;;;;;;;;4976077;28;1196;-89
2021/08/03 22:45:04;;;;;;;;;;;;;;;;;;4976895;28;1055;-89
2021/08/03 22:47:45;;;;;;;;;;;;;;;;;;4976998;28;1269;-89
2021/08/03 22:50:12;;;;;;;;;;;;;;;;;;4976975;28;1253;-89
2021/08/03 22:52:37;;;;;;;;;;;;;;;;;;5065615;23;1673;-88
2021/08/03 22:55:02;;;;;;;;;;;;;;;;;;5088967;28;856;-89
2021/08/03 22:57:27;;;;;;;;;;;;;;;;;;5078803;28;1408;-89
2021/08/03 22:59:52;;;;;;;;;;;;;;;;;;5096316;28;1906;-89
2021/08/03 23:02:19;;;;;;;;;;;;;;;;;;5080639;28;1048;-90
2021/08/03 23:04:59;;;;;;;;;;;;;;;;;;5076208;28;1327;-89
2021/08/03 23:07:36;;;;;;;;;;;;;;;;;;5075963;28;1386;-88
2021/08/03 23:10:03;;;;;;;;;;;;;;;;;;5076042;28;1406;-88
2021/08/03 23:12:48;;;;;;;;;;;;;;;;;;5075871;28;1579;-89
2021/08/03 23:17:57;;;;;;;;;;;;;;;;;;5077085;28;653;-88
2021/08/03 23:20:22;;;;;;;;;;;;;;;;;;5076755;28;1906;-89
2021/08/03 23:23:09;;;;;;;;;;;;;;;;;;5077004;28;921;-89
2021/08/03 23:28:34;;;;;;;;;;;;;;;;;;5076793;28;922;-88
2021/08/03 23:31:01;;;;;;;;;;;;;;;;;;5075733;28;1261;-87
2021/08/03 23:36:13;;;;;;;;;;;;;;;;;;5076819;28;1187;-88
2021/08/03 23:38:50;;;;;;;;;;;;;;;;;;5075454;28;1270;-89
2021/08/03 23:43:59;;;;;;;;;;;;;;;;;;5092257;28;897;-88
2021/08/03 23:46:25;;;;;;;;;;;;;;;;;;5083942;28;1222;-89
2021/08/03 23:49:00;;;;;;;;;;;;;;;;;;5076447;28;806;-88
2021/08/03 23:51:36;;;;;;;;;;;;;;;;;;5075632;28;1002;-88
2021/08/03 23:54:02;;;;;;;;;;;;;;;;;;5078583;28;1247;-88
